createdAt,value
2019-04-07T00:01:00.224Z,84.53
2019-04-07T00:03:30.010Z,80.57
2019-04-07T00:05:59.824Z,82.33
2019-04-07T00:08:29.976Z,77.80
2019-04-07T00:11:00.185Z,74.60
2019-04-07T00:13:30.957Z,77.17
2019-04-07T00:16:01.968Z,74.47
2019-04-07T00:18:32.053Z,75.20
2019-04-07T00:21:01.991Z,73.97
2019-04-07T00:23:31.990Z,81.17
2019-04-07T00:26:02.209Z,79.13
2019-04-07T00:28:32.507Z,79.97
2019-04-07T00:31:02.534Z,75.83
2019-04-07T00:33:32.492Z,79.53
2019-04-07T00:36:05.116Z,82.50
2019-04-07T00:41:20.980Z,77.20
2019-04-07T00:43:50.754Z,82.40
2019-04-07T00:46:20.301Z,78.27
2019-04-07T00:48:49.902Z,74.30
2019-04-07T00:51:20.564Z,75.30
2019-04-07T00:53:50.752Z,77.33
2019-04-07T00:56:20.687Z,75.10
2019-04-07T00:58:53.250Z,80.17
2019-04-07T01:01:23.119Z,76.10
2019-04-07T01:03:53.459Z,69.73
2019-04-07T01:06:23.125Z,69.97
2019-04-07T01:08:52.607Z,69.33
2019-04-07T01:11:22.297Z,67.60
2019-04-07T01:13:52.057Z,66.93
2019-04-07T01:16:21.988Z,71.03
2019-04-07T01:18:51.984Z,74.23
2019-04-07T01:21:21.799Z,70.87
2019-04-07T01:23:51.726Z,71.20
2019-04-07T01:26:21.698Z,70.50
2019-04-07T01:28:54.308Z,71.10
2019-04-07T01:31:25.914Z,70.03
2019-04-07T01:33:55.606Z,73.77
2019-04-07T01:36:25.793Z,67.50
2019-04-07T01:38:56.504Z,70.37
2019-04-07T01:41:40.910Z,75.20
2019-04-07T01:44:25.677Z,72.87
2019-04-07T01:47:13.638Z,76.40
2019-04-07T01:50:21.096Z,73.70
2019-04-07T01:53:19.146Z,80.23
2019-04-07T01:56:07.627Z,78.90
2019-04-07T01:58:52.567Z,82.03
2019-04-07T02:01:28.508Z,79.00
2019-04-07T02:04:15.163Z,79.07
2019-04-07T02:07:02.888Z,83.00
2019-04-07T02:09:43.593Z,83.10
2019-04-07T02:12:47.806Z,82.50
2019-04-07T02:15:35.281Z,81.90
2019-04-07T02:18:25.310Z,70.83
2019-04-07T02:21:14.236Z,77.70
2019-04-07T02:24:12.332Z,77.00
2019-04-07T02:26:50.594Z,74.53
2019-04-07T02:29:58.899Z,76.23
2019-04-07T02:33:00.089Z,77.90
2019-04-07T02:35:56.027Z,78.07
2019-04-07T02:38:48.148Z,72.00
2019-04-07T02:41:24.058Z,71.60
2019-04-07T02:44:07.617Z,69.97
2019-04-07T02:47:01.011Z,72.63
2019-04-07T02:49:43.689Z,72.47
2019-04-07T02:52:30.272Z,75.23
2019-04-07T03:03:29.388Z,70.80
2019-04-07T03:06:44.022Z,64.80
2019-04-07T03:09:25.998Z,65.23
2019-04-07T03:12:33.245Z,67.53
2019-04-07T03:15:11.161Z,69.57
2019-04-07T03:17:52.274Z,63.10
2019-04-07T03:20:29.942Z,68.40
2019-04-07T03:23:28.681Z,64.53
2019-04-07T03:26:16.348Z,67.47
2019-04-07T03:29:05.842Z,70.27
2019-04-07T03:31:55.972Z,67.40
2019-04-07T03:34:44.850Z,66.80
2019-04-07T03:37:41.183Z,67.70
2019-04-07T03:40:35.561Z,67.33
2019-04-07T03:43:34.586Z,68.97
2019-04-07T03:46:09.324Z,68.73
2019-04-07T03:48:43.455Z,72.37
2019-04-07T03:51:33.887Z,70.60
2019-04-07T03:57:47.717Z,66.70
2019-04-07T04:01:35.563Z,70.40
2019-04-07T04:04:24.299Z,64.63
2019-04-07T04:07:22.566Z,66.77
2019-04-07T04:10:04.122Z,67.43
2019-04-07T04:12:56.452Z,65.80
2019-04-07T04:15:33.699Z,67.77
2019-04-07T04:20:49.313Z,65.80
2019-04-07T04:23:19.998Z,64.40
2019-04-07T04:28:35.389Z,66.93
2019-04-07T04:31:05.075Z,65.13
2019-04-07T04:36:20.453Z,68.33
2019-04-07T04:38:50.335Z,65.63
2019-04-07T04:41:21.031Z,64.77
2019-04-07T04:43:50.634Z,66.40
2019-04-07T04:46:20.074Z,68.57
2019-04-07T04:48:50.013Z,65.80
2019-04-07T04:51:20.247Z,64.73
2019-04-07T04:53:51.696Z,65.33
2019-04-07T04:56:22.735Z,67.60
2019-04-07T04:58:53.274Z,66.10
2019-04-07T05:01:23.311Z,66.80
2019-04-07T05:03:53.876Z,63.97
2019-04-07T05:06:24.269Z,61.50
2019-04-07T05:08:54.545Z,67.27
2019-04-07T05:11:24.813Z,63.20
2019-04-07T05:13:54.565Z,64.47
2019-04-07T05:16:24.230Z,66.43
2019-04-07T05:18:54.104Z,64.27
2019-04-07T05:21:24.028Z,63.87
2019-04-07T05:23:53.913Z,62.63
2019-04-07T05:26:24.045Z,62.57
2019-04-07T05:28:53.865Z,60.67
2019-04-07T05:31:23.547Z,60.53
2019-04-07T05:33:53.276Z,62.60
2019-04-07T05:36:23.578Z,61.13
2019-04-07T05:38:53.337Z,62.03
2019-04-07T05:41:23.071Z,59.30
2019-04-07T05:43:53.527Z,61.93
2019-04-07T05:46:23.783Z,60.13
2019-04-07T05:48:53.512Z,59.93
2019-04-07T05:51:23.682Z,62.13
2019-04-07T05:53:53.848Z,57.63
2019-04-07T05:56:28.141Z,55.13
2019-04-07T05:58:55.093Z,58.70
2019-04-07T06:01:24.874Z,60.33
2019-04-07T06:03:57.750Z,57.17
2019-04-07T06:06:27.913Z,58.60
2019-04-07T06:08:57.774Z,58.30
2019-04-07T06:11:31.287Z,62.20
2019-04-07T06:13:58.761Z,60.97
2019-04-07T06:16:28.803Z,55.87
2019-04-07T06:18:58.905Z,57.13
2019-04-07T06:21:28.652Z,58.43
2019-04-07T06:23:59.828Z,55.70
2019-04-07T06:26:29.973Z,61.27
2019-04-07T06:28:59.858Z,56.30
2019-04-07T06:31:32.226Z,54.77
2019-04-07T06:34:03.187Z,56.23
2019-04-07T06:36:32.920Z,58.73
2019-04-07T06:39:04.657Z,54.97
2019-04-07T06:41:34.552Z,57.77
2019-04-07T06:44:11.397Z,54.37
2019-04-07T06:47:05.342Z,55.10
2019-04-07T06:50:05.906Z,55.37
2019-04-07T06:52:54.719Z,60.57
2019-04-07T06:55:37.312Z,53.93
2019-04-07T07:03:57.558Z,53.37
2019-04-07T07:06:47.114Z,52.83
2019-04-07T07:09:34.962Z,52.53
2019-04-07T07:12:27.078Z,52.53
2019-04-07T07:18:04.653Z,53.23
2019-04-07T07:20:52.662Z,53.63
2019-04-07T07:23:26.376Z,49.30
2019-04-07T07:25:56.546Z,50.30
2019-04-07T07:28:26.350Z,52.47
2019-04-07T07:30:56.154Z,49.47
2019-04-07T07:33:25.949Z,50.93
2019-04-07T07:35:55.627Z,49.47
2019-04-07T07:38:32.098Z,52.20
2019-04-07T07:41:01.533Z,50.20
2019-04-07T07:43:31.911Z,48.63
2019-04-07T07:46:04.286Z,47.47
2019-04-07T07:51:20.301Z,46.87
2019-04-07T07:53:50.531Z,50.93
2019-04-07T07:56:20.379Z,49.83
2019-04-07T08:01:51.390Z,49.00
2019-04-07T08:04:20.795Z,48.80
2019-04-07T08:06:51.221Z,49.87
2019-04-07T08:09:23.119Z,43.70
2019-04-07T08:11:54.398Z,46.40
2019-04-07T08:17:33.147Z,47.00
2019-04-07T08:20:01.271Z,46.10
2019-04-07T08:22:36.546Z,45.83
2019-04-07T08:25:02.706Z,45.60
2019-04-07T08:27:57.446Z,43.83
2019-04-07T11:34:55.925Z,17.50
2019-04-07T11:37:45.007Z,17.50
2019-04-07T11:40:53.544Z,18.73
2019-04-07T11:43:44.988Z,16.87
2019-04-07T13:24:31.065Z,19.17
2019-04-07T13:27:14.326Z,17.97
2019-04-07T13:29:55.333Z,16.17
2019-04-07T13:32:56.674Z,18.23
2019-04-07T13:35:38.162Z,17.40
2019-04-07T13:38:19.638Z,17.57
2019-04-07T13:41:07.331Z,17.27
2019-04-07T13:43:54.935Z,20.23
2019-04-07T13:46:59.174Z,17.43
2019-04-07T13:49:57.346Z,17.80
2019-04-07T13:52:46.395Z,17.20
2019-04-07T13:55:40.278Z,17.73
2019-04-07T13:58:26.110Z,15.90
2019-04-07T14:01:13.773Z,16.73
2019-04-07T14:04:02.329Z,17.40
2019-04-07T14:06:58.667Z,17.33
2019-04-07T14:09:39.156Z,17.00
2019-04-07T14:15:29.954Z,15.63
2019-04-07T14:18:16.606Z,15.67
2019-04-07T14:21:14.789Z,17.60
2019-04-07T14:24:23.768Z,19.13
2019-04-07T14:27:15.348Z,15.83
2019-04-07T14:30:15.127Z,19.40
2019-04-07T14:36:11.644Z,18.80
2019-04-07T14:39:05.323Z,15.43
2019-04-07T14:42:07.620Z,15.40
2019-04-07T14:44:46.800Z,16.07
2019-04-07T14:47:34.211Z,16.33
2019-04-07T14:50:13.064Z,17.93
2019-04-07T14:52:51.959Z,14.93
2019-04-07T14:55:50.949Z,16.07
2019-04-07T14:58:48.419Z,19.07
2019-04-07T15:01:40.128Z,18.67
2019-04-07T15:04:10.844Z,17.90
2019-04-07T15:06:44.883Z,16.83
2019-04-07T15:09:33.034Z,16.60
2019-04-07T15:12:20.371Z,17.13
2019-04-07T15:14:45.953Z,15.67
2019-04-07T15:20:16.032Z,17.47
2019-04-07T15:22:47.276Z,17.40
2019-04-07T15:25:20.373Z,17.10
2019-04-07T15:27:56.481Z,17.03
2019-04-07T15:30:31.126Z,21.13
2019-04-07T15:33:04.181Z,19.20
2019-04-07T15:35:35.289Z,16.13
2019-04-07T15:38:05.419Z,16.40
2019-04-07T15:40:36.487Z,16.40
2019-04-07T15:43:10.045Z,15.23
2019-04-07T15:45:39.751Z,18.40
2019-04-07T15:48:10.800Z,19.57
2019-04-07T15:50:40.464Z,20.83
2019-04-07T15:53:13.445Z,17.27
2019-04-07T15:55:47.580Z,19.67
2019-04-07T15:58:13.498Z,18.80
2019-04-07T16:03:54.845Z,17.20
2019-04-07T16:06:24.825Z,19.90
2019-04-07T16:08:57.329Z,18.60
2019-04-07T16:11:30.715Z,18.93
2019-04-07T16:14:00.386Z,18.77
2019-04-07T16:16:30.757Z,18.40
2019-04-07T16:19:02.705Z,22.67
2019-04-07T16:21:33.145Z,23.70
2019-04-07T16:24:06.271Z,23.37
2019-04-07T16:26:37.174Z,21.93
2019-04-07T16:29:08.090Z,30.07
2019-04-07T16:31:37.980Z,21.23
2019-04-07T16:34:10.335Z,19.73
2019-04-07T16:36:41.234Z,19.43
2019-04-07T16:45:40.027Z,23.60
2019-04-07T16:48:10.747Z,32.40
2019-04-07T16:50:41.839Z,30.40
2019-04-07T16:53:13.989Z,37.73
2019-04-07T16:58:33.181Z,19.97
2019-04-07T17:01:01.359Z,18.97
2019-04-07T17:03:32.827Z,18.93
2019-04-07T17:06:03.002Z,17.93
2019-04-07T17:08:33.851Z,31.47
2019-04-07T17:11:06.418Z,22.43
2019-04-07T17:13:40.780Z,28.63
2019-04-07T17:16:10.110Z,45.57
2019-04-07T17:18:43.203Z,21.80
2019-04-07T17:21:15.691Z,22.10
2019-04-07T17:23:46.093Z,23.67
2019-04-07T17:26:16.966Z,23.37
2019-04-07T17:28:50.236Z,20.10
2019-04-07T17:31:20.821Z,18.60
2019-04-07T17:33:51.993Z,18.30
2019-04-07T17:36:23.023Z,19.87
2019-04-07T17:39:18.617Z,20.47
2019-04-07T17:41:50.412Z,20.73
2019-04-07T17:47:45.218Z,20.07
2019-04-07T17:50:40.325Z,20.37
2019-04-07T17:53:29.739Z,24.00
2019-04-07T17:56:30.953Z,19.37
2019-04-07T17:59:40.154Z,20.37
2019-04-07T18:02:32.251Z,23.27
2019-04-07T18:05:12.617Z,21.07
2019-04-07T18:08:05.872Z,21.80
2019-04-07T21:15:29.468Z,23.93
2019-04-07T21:18:15.864Z,23.33
2019-04-07T21:20:58.837Z,23.93
2019-04-07T21:23:39.668Z,25.63
2019-04-07T21:29:23.825Z,23.80
2019-04-07T21:32:15.125Z,22.67
2019-04-07T21:35:08.837Z,23.57
2019-04-07T21:38:00.497Z,22.67
2019-04-07T21:40:44.938Z,23.03
2019-04-07T21:46:32.586Z,24.77
2019-04-07T21:49:35.446Z,24.70
2019-04-07T21:52:07.260Z,21.03
2019-04-07T21:55:00.964Z,24.43
2019-04-07T21:57:54.543Z,25.87
2019-04-07T22:00:41.366Z,23.97
2019-04-07T22:06:20.618Z,25.53
2019-04-07T22:11:49.736Z,26.50
2019-04-07T22:14:19.309Z,26.37
2019-04-07T22:16:49.163Z,27.23
2019-04-07T22:19:20.202Z,24.93
2019-04-07T22:21:53.267Z,26.80
2019-04-07T22:24:21.927Z,25.00
2019-04-07T22:26:51.808Z,25.57
2019-04-07T22:29:22.489Z,27.97
2019-04-07T22:31:54.398Z,25.33
2019-04-07T22:34:24.777Z,25.13
2019-04-07T22:36:54.478Z,23.73
2019-04-07T22:39:27.465Z,25.90
2019-04-07T22:41:56.973Z,24.33
2019-04-07T22:44:26.692Z,27.47
2019-04-07T22:46:59.290Z,25.20
2019-04-07T22:49:31.841Z,25.40
2019-04-07T22:52:01.249Z,21.97
2019-04-07T22:54:31.365Z,24.00
2019-04-07T22:57:01.048Z,24.83
2019-04-07T22:59:32.233Z,24.17
2019-04-07T23:02:03.169Z,21.97
2019-04-07T23:04:32.833Z,23.83
2019-04-07T23:07:04.130Z,26.23
2019-04-07T23:12:29.515Z,24.20
2019-04-07T23:14:59.404Z,25.47
2019-04-07T23:17:54.211Z,26.90
2019-04-07T23:20:23.832Z,26.43
2019-04-07T23:22:54.205Z,25.03
2019-04-07T23:25:24.048Z,26.40
2019-04-07T23:27:54.310Z,28.83
2019-04-07T23:30:27.629Z,25.53
2019-04-07T23:32:57.803Z,24.10
2019-04-07T23:35:27.320Z,25.33
2019-04-07T23:37:57.412Z,24.70
2019-04-07T23:40:27.987Z,25.20
2019-04-07T23:42:57.602Z,26.97
2019-04-07T23:45:27.397Z,25.90
2019-04-07T23:47:58.734Z,28.07
2019-04-07T23:50:29.415Z,27.40
2019-04-07T23:53:03.503Z,24.20
2019-04-07T23:55:33.123Z,24.63
2019-04-07T23:58:02.810Z,23.37
